Albuquerque, New Mexico
Current Conditions -  °F | °C
As of 5:52 AM on Sunday 28 Dec 2014 (Local Time) from KABQ Reporting Station
Clear Clear  
Wind Chill: 18°   Ceiling: Unl
Heat Index: 18°   Visibility: 10mi
Dew Point:   Wind: 0mph
Humidity: 65%   Direction: NA
Pressure: 30.22"   Gusts: NA
Location:  35.08°N, 106.64°W
Report Text: KABQ 281252Z 00000KT 10SM CLR M08/M13 A3022 RMK AO2 SLP262 T10781133
Loading
Personal Weather Stations






























Interactive Weather Map New forecast layout! Learn more

10-Day Weather Forecast

Advertisements
Track Severe Weather on mobile